createdAt,value
2022-10-11T00:00:16.310Z,13.22
2022-10-11T00:01:19.052Z,13.28
2022-10-11T00:02:16.282Z,13.18
2022-10-11T00:03:16.283Z,13.20
2022-10-11T00:04:31.013Z,13.23
2022-10-11T00:05:16.272Z,13.20
2022-10-11T00:06:16.260Z,13.27
2022-10-11T00:07:16.260Z,13.18
2022-10-11T00:08:16.253Z,13.13
2022-10-11T00:09:16.261Z,13.20
2022-10-11T00:10:16.246Z,13.25
2022-10-11T00:11:16.250Z,13.18
2022-10-11T00:12:16.241Z,13.16
2022-10-11T00:13:16.244Z,13.09
2022-10-11T00:14:16.236Z,13.15
2022-10-11T00:15:16.245Z,13.15
2022-10-11T00:16:16.234Z,13.09
2022-10-11T00:17:16.240Z,13.12
2022-10-11T00:18:16.220Z,13.05
2022-10-11T00:19:16.224Z,13.08
2022-10-11T00:20:16.220Z,13.11
2022-10-11T00:21:16.210Z,13.05
2022-10-11T00:22:16.211Z,13.00
2022-10-11T00:23:16.215Z,13.05
2022-10-11T00:24:16.222Z,13.03
2022-10-11T00:25:16.199Z,13.01
2022-10-11T00:26:16.195Z,13.04
2022-10-11T00:27:16.184Z,12.98
2022-10-11T00:28:16.235Z,13.00
2022-10-11T00:29:16.186Z,13.00
2022-10-11T00:30:16.185Z,12.93
2022-10-11T00:31:16.177Z,12.90
2022-10-11T00:32:16.180Z,12.90
2022-10-11T00:33:16.175Z,12.86
2022-10-11T00:34:16.176Z,12.93
2022-10-11T00:35:16.169Z,12.86
2022-10-11T00:36:16.154Z,12.95
2022-10-11T00:37:16.160Z,12.85
2022-10-11T00:38:16.158Z,12.80
2022-10-11T00:39:16.145Z,12.78
2022-10-11T00:40:16.145Z,12.82
2022-10-11T00:41:16.141Z,12.85
2022-10-11T00:42:16.135Z,12.78
2022-10-11T00:43:16.139Z,12.76
2022-10-11T00:44:16.126Z,12.90
2022-10-11T00:45:16.144Z,12.67
2022-10-11T00:46:16.155Z,12.73
2022-10-11T00:47:16.133Z,12.73
2022-10-11T00:48:16.116Z,12.72
2022-10-11T00:49:16.118Z,12.76
2022-10-11T00:50:16.113Z,12.76
2022-10-11T00:51:16.109Z,12.75
2022-10-11T00:52:16.107Z,12.73
2022-10-11T00:53:16.099Z,12.55
2022-10-11T00:54:16.096Z,12.57
2022-10-11T00:55:16.089Z,12.64
2022-10-11T00:56:16.088Z,12.60
2022-10-11T00:57:23.023Z,12.61
2022-10-11T00:58:16.084Z,12.58
2022-10-11T00:59:16.074Z,12.64
2022-10-11T01:00:16.086Z,12.62
2022-10-11T01:01:16.212Z,12.60
2022-10-11T01:02:16.067Z,12.58
2022-10-11T01:03:16.066Z,12.64
2022-10-11T01:04:16.057Z,12.58
2022-10-11T01:05:29.137Z,12.61
2022-10-11T01:06:16.056Z,12.65
2022-10-11T01:07:16.047Z,12.57
2022-10-11T01:08:16.067Z,12.55
2022-10-11T01:09:16.045Z,12.54
2022-10-11T01:10:16.041Z,12.54
2022-10-11T01:11:16.031Z,12.55
2022-10-11T01:12:16.028Z,12.53
2022-10-11T01:13:16.025Z,12.54
2022-10-11T01:14:16.030Z,12.50
2022-10-11T01:15:16.017Z,12.57
2022-10-11T01:16:16.013Z,12.57
2022-10-11T01:17:16.028Z,12.53
2022-10-11T01:18:16.051Z,12.47
2022-10-11T01:19:16.003Z,12.45
2022-10-11T01:20:16.007Z,12.53
2022-10-11T01:21:16.003Z,12.49
2022-10-11T01:22:15.990Z,12.46
2022-10-11T01:23:15.995Z,12.53
2022-10-11T01:24:15.989Z,12.47
2022-10-11T01:25:15.978Z,12.53
2022-10-11T01:26:15.979Z,12.47
2022-10-11T01:27:15.974Z,12.49
2022-10-11T01:28:16.056Z,12.47
2022-10-11T01:29:15.965Z,12.45
2022-10-11T01:30:15.968Z,12.45
2022-10-11T01:31:15.961Z,12.40
2022-10-11T01:32:15.956Z,12.42
2022-10-11T01:33:15.958Z,12.42
2022-10-11T01:34:15.947Z,12.37
2022-10-11T01:35:15.947Z,12.43
2022-10-11T01:36:16.531Z,12.42
2022-10-11T01:37:22.528Z,12.40
2022-10-11T01:38:15.938Z,12.39
2022-10-11T01:39:15.921Z,12.31
2022-10-11T01:40:15.933Z,12.36
2022-10-11T01:41:15.920Z,12.25
2022-10-11T01:42:15.920Z,12.36
2022-10-11T01:43:16.584Z,12.31
2022-10-11T01:44:15.912Z,12.29
2022-10-11T01:45:15.907Z,12.31
2022-10-11T01:46:15.907Z,12.35
2022-10-11T01:47:15.942Z,12.35
2022-10-11T01:48:15.900Z,12.35
2022-10-11T01:49:15.899Z,12.32
2022-10-11T01:50:15.892Z,12.28
2022-10-11T01:51:15.892Z,12.32
2022-10-11T01:52:15.886Z,12.24
2022-10-11T01:53:15.879Z,12.24
2022-10-11T01:54:22.534Z,12.21
2022-10-11T01:55:15.871Z,12.24
2022-10-11T01:56:15.863Z,12.15
2022-10-11T01:57:15.863Z,12.12
2022-10-11T01:58:15.861Z,12.13
2022-10-11T01:59:18.753Z,12.13
2022-10-11T02:00:15.856Z,12.04
2022-10-11T02:01:15.883Z,12.10
2022-10-11T02:02:15.842Z,12.09
2022-10-11T02:03:15.840Z,11.99
2022-10-11T02:04:15.846Z,12.00
2022-10-11T02:05:15.840Z,12.03
2022-10-11T02:06:15.826Z,12.06
2022-10-11T02:07:15.830Z,11.94
2022-10-11T02:08:15.829Z,11.97
2022-10-11T02:09:30.537Z,11.90
2022-10-11T02:10:15.814Z,11.91
2022-10-11T02:11:15.812Z,11.88
2022-10-11T02:12:15.803Z,11.84
2022-10-11T02:13:15.813Z,11.81
2022-10-11T02:14:15.811Z,11.94
2022-10-11T02:15:15.795Z,11.81
2022-10-11T02:16:15.788Z,11.83
2022-10-11T02:17:15.791Z,11.75
2022-10-11T02:18:15.785Z,11.75
2022-10-11T02:19:15.781Z,11.83
2022-10-11T02:20:15.780Z,11.73
2022-10-11T02:21:15.765Z,11.72
2022-10-11T02:22:18.549Z,11.78
2022-10-11T02:23:15.788Z,11.80
2022-10-11T02:24:15.770Z,11.83
2022-10-11T02:25:15.755Z,11.73
2022-10-11T02:26:15.748Z,11.78
2022-10-11T02:27:15.757Z,11.69
2022-10-11T02:28:15.796Z,11.78
2022-10-11T02:29:15.743Z,11.72
2022-10-11T02:30:15.736Z,11.66
2022-10-11T02:31:15.731Z,11.73
2022-10-11T02:32:15.735Z,11.72
2022-10-11T02:33:15.721Z,11.70
2022-10-11T02:34:16.548Z,11.66
2022-10-11T02:35:15.719Z,11.72
2022-10-11T02:36:15.710Z,11.69
2022-10-11T02:37:15.710Z,11.68
2022-10-11T02:38:15.709Z,11.66
2022-10-11T02:39:15.701Z,11.69
2022-10-11T02:40:22.767Z,11.62
2022-10-11T02:41:15.690Z,11.68
2022-10-11T02:42:15.684Z,11.65
2022-10-11T02:43:15.684Z,11.69
2022-10-11T02:44:15.678Z,11.65
2022-10-11T02:45:15.674Z,11.68
2022-10-11T02:46:17.675Z,11.66
2022-10-11T02:47:15.674Z,11.60
2022-10-11T02:48:15.663Z,11.65
2022-10-11T02:49:15.660Z,11.62
2022-10-11T02:50:15.668Z,11.59
2022-10-11T02:51:15.654Z,11.57
2022-10-11T02:52:15.651Z,11.63
2022-10-11T02:53:15.641Z,11.55
2022-10-11T02:54:15.641Z,11.65
2022-10-11T02:55:15.638Z,11.68
2022-10-11T02:56:15.635Z,11.62
2022-10-11T02:57:15.620Z,11.62
2022-10-11T02:58:15.624Z,11.65
2022-10-11T02:59:15.624Z,11.54
2022-10-11T03:00:15.631Z,11.62
2022-10-11T03:01:15.658Z,11.54
2022-10-11T03:02:15.608Z,11.55
2022-10-11T03:03:15.603Z,11.60
2022-10-11T03:04:15.597Z,11.62
2022-10-11T03:05:15.590Z,11.55
2022-10-11T03:06:15.582Z,11.59
2022-10-11T03:07:15.605Z,11.57
2022-10-11T03:08:15.582Z,11.59
2022-10-11T03:09:15.571Z,11.57
2022-10-11T03:10:15.579Z,11.50
2022-10-11T03:11:15.568Z,11.52
2022-10-11T03:12:15.567Z,11.54
2022-10-11T03:13:18.385Z,11.52
2022-10-11T03:14:15.558Z,11.52
2022-10-11T03:15:15.638Z,11.54
2022-10-11T03:16:15.548Z,11.57
2022-10-11T03:17:35.036Z,11.63
2022-10-11T03:18:15.541Z,11.51
2022-10-11T03:19:22.047Z,11.57
2022-10-11T03:20:15.533Z,11.57
2022-10-11T03:21:15.525Z,11.57
2022-10-11T03:22:15.521Z,11.63
2022-10-11T03:23:15.523Z,11.55
2022-10-11T03:24:16.052Z,11.52
2022-10-11T03:25:15.504Z,11.63
2022-10-11T03:26:15.505Z,11.59
2022-10-11T03:27:15.501Z,11.57
2022-10-11T03:28:15.546Z,11.62
2022-10-11T03:29:15.494Z,11.55
2022-10-11T03:30:18.154Z,11.55
2022-10-11T03:31:15.476Z,11.62
2022-10-11T03:32:15.482Z,11.60
2022-10-11T03:33:15.471Z,11.55
2022-10-11T03:34:22.059Z,11.59
2022-10-11T03:35:15.471Z,11.55
2022-10-11T03:36:15.470Z,11.51
2022-10-11T03:37:15.467Z,11.57
2022-10-11T03:38:15.459Z,11.55
2022-10-11T03:39:15.455Z,11.62
2022-10-11T03:40:15.443Z,11.54
2022-10-11T03:41:16.056Z,11.51
2022-10-11T03:42:22.072Z,11.60
2022-10-11T03:43:15.442Z,11.52
2022-10-11T03:44:15.427Z,11.65
2022-10-11T03:45:15.423Z,11.57
2022-10-11T03:46:15.422Z,11.57
2022-10-11T03:47:15.421Z,11.59
2022-10-11T03:48:22.076Z,11.57
2022-10-11T03:49:15.417Z,11.54
2022-10-11T03:50:15.404Z,11.54
2022-10-11T03:51:15.405Z,11.54
2022-10-11T03:52:15.395Z,11.57
2022-10-11T03:53:15.419Z,11.51
2022-10-11T03:54:15.393Z,11.59
2022-10-11T03:55:15.384Z,11.52
2022-10-11T03:56:16.160Z,11.59
2022-10-11T03:57:15.367Z,11.48
2022-10-11T03:58:15.380Z,11.50
2022-10-11T03:59:15.363Z,11.47
2022-10-11T04:00:15.367Z,11.55
2022-10-11T04:01:15.437Z,11.52
2022-10-11T04:02:15.357Z,11.57
2022-10-11T04:03:15.373Z,11.50
2022-10-11T04:04:15.342Z,11.48
2022-10-11T04:05:36.351Z,11.45
2022-10-11T04:06:15.338Z,11.51
2022-10-11T04:07:15.333Z,11.44
2022-10-11T04:08:15.329Z,11.44
2022-10-11T04:09:15.325Z,11.45
2022-10-11T04:10:15.316Z,11.40
2022-10-11T04:11:15.325Z,11.47
2022-10-11T04:12:30.110Z,11.45
2022-10-11T04:13:15.315Z,11.35
2022-10-11T04:14:15.321Z,11.40
2022-10-11T04:15:15.298Z,11.37
2022-10-11T04:16:15.298Z,11.36
2022-10-11T04:17:15.293Z,11.32
2022-10-11T04:18:36.296Z,11.35
2022-10-11T04:19:15.347Z,11.36
2022-10-11T04:20:15.310Z,11.33
2022-10-11T04:21:15.270Z,11.32
2022-10-11T04:22:15.281Z,11.36
2022-10-11T04:23:15.261Z,11.32
2022-10-11T04:24:15.267Z,11.36
2022-10-11T04:25:15.255Z,11.37
2022-10-11T04:26:15.255Z,11.36
2022-10-11T04:27:15.256Z,11.40
2022-10-11T04:28:15.314Z,11.33
2022-10-11T04:29:32.605Z,11.36
2022-10-11T04:30:15.268Z,11.36
2022-10-11T04:31:18.073Z,11.33
2022-10-11T04:32:15.228Z,11.23
2022-10-11T04:33:15.226Z,11.23
2022-10-11T04:34:15.220Z,11.22
2022-10-11T04:35:15.217Z,11.19
2022-10-11T04:36:15.240Z,11.23
2022-10-11T04:37:15.208Z,11.15
2022-10-11T04:38:15.196Z,11.30
2022-10-11T04:39:15.205Z,11.26
2022-10-11T04:40:15.198Z,11.26
2022-10-11T04:41:15.182Z,11.22
2022-10-11T04:42:15.184Z,11.30
2022-10-11T04:43:15.187Z,11.19
2022-10-11T04:44:15.217Z,11.26
2022-10-11T04:45:15.185Z,11.22
2022-10-11T04:46:15.173Z,11.23
2022-10-11T04:47:22.070Z,11.26
2022-10-11T04:48:15.174Z,11.32
2022-10-11T04:49:18.359Z,11.22
2022-10-11T04:50:15.154Z,11.25
2022-10-11T04:51:15.145Z,11.14
2022-10-11T04:52:15.253Z,11.19
2022-10-11T04:53:15.135Z,11.27
2022-10-11T04:54:18.076Z,11.27
2022-10-11T04:55:15.128Z,11.22
2022-10-11T04:56:15.210Z,11.23
2022-10-11T04:57:15.117Z,11.23
2022-10-11T04:58:15.139Z,11.18
2022-10-11T04:59:16.325Z,11.15
2022-10-11T05:00:15.114Z,11.18
2022-10-11T05:01:15.106Z,11.15
2022-10-11T05:02:15.177Z,11.18
2022-10-11T05:03:15.088Z,11.07
2022-10-11T05:04:15.092Z,11.07
2022-10-11T05:05:18.074Z,11.12
2022-10-11T05:06:15.077Z,11.15
2022-10-11T05:07:15.077Z,11.17
2022-10-11T05:08:15.067Z,11.10
2022-10-11T05:09:21.575Z,11.19
2022-10-11T05:10:21.575Z,11.18
2022-10-11T05:11:16.070Z,11.10
2022-10-11T05:12:15.055Z,11.08
2022-10-11T05:13:15.046Z,11.10
2022-10-11T05:14:15.045Z,11.26
2022-10-11T05:15:15.184Z,11.30
2022-10-11T05:16:15.485Z,11.55
2022-10-11T05:17:15.043Z,11.81
2022-10-11T05:18:15.025Z,12.00
2022-10-11T05:19:15.020Z,12.28
2022-10-11T05:20:42.627Z,12.40
2022-10-11T05:21:29.577Z,12.49
2022-10-11T05:22:15.013Z,12.57
2022-10-11T05:23:15.007Z,12.64
2022-10-11T05:24:15.005Z,12.86
2022-10-11T05:25:15.121Z,12.85
2022-10-11T05:26:15.004Z,12.79
2022-10-11T05:27:21.594Z,12.62
2022-10-11T05:28:15.018Z,12.49
2022-10-11T05:29:21.594Z,12.45
2022-10-11T05:30:17.581Z,12.28
2022-10-11T05:31:21.597Z,12.25
2022-10-11T05:32:14.971Z,12.10
2022-10-11T05:33:14.967Z,11.97
2022-10-11T05:34:21.580Z,12.00
2022-10-11T05:35:17.653Z,11.80
2022-10-11T05:36:14.954Z,11.84
2022-10-11T05:37:14.958Z,11.78
2022-10-11T05:38:51.116Z,11.66
2022-10-11T05:39:14.990Z,11.62
2022-10-11T05:40:29.615Z,11.70
2022-10-11T05:41:15.022Z,11.68
2022-10-11T05:42:15.063Z,11.52
2022-10-11T05:43:15.447Z,11.63
2022-10-11T05:44:21.622Z,11.50
2022-10-11T05:45:36.695Z,11.50
2022-10-11T05:46:17.615Z,11.48
2022-10-11T05:47:21.603Z,11.51
2022-10-11T05:48:14.900Z,11.48
2022-10-11T05:49:14.908Z,11.44
2022-10-11T05:50:35.900Z,11.48
2022-10-11T05:51:21.577Z,11.45
2022-10-11T05:52:14.879Z,11.43
2022-10-11T05:53:14.883Z,11.48
2022-10-11T05:54:14.925Z,11.36
2022-10-11T05:55:14.875Z,11.35
2022-10-11T05:56:21.581Z,11.35
2022-10-11T05:57:14.865Z,11.41
2022-10-11T05:58:14.858Z,11.44
2022-10-11T05:59:14.854Z,11.33
2022-10-11T06:00:14.852Z,11.33
2022-10-11T06:01:21.634Z,11.30
2022-10-11T06:02:14.880Z,11.26
2022-10-11T06:03:14.842Z,11.25
2022-10-11T06:04:21.586Z,11.25
2022-10-11T06:05:14.839Z,11.23
2022-10-11T06:06:14.824Z,11.25
2022-10-11T06:07:15.213Z,11.22
2022-10-11T06:08:14.817Z,11.23
2022-10-11T06:09:14.978Z,11.18
2022-10-11T06:10:14.820Z,11.12
2022-10-11T06:11:14.830Z,11.12
2022-10-11T06:12:14.797Z,11.10
2022-10-11T06:13:14.980Z,11.12
2022-10-11T06:14:14.786Z,11.10
2022-10-11T06:15:14.785Z,11.12
2022-10-11T06:16:14.785Z,11.10
2022-10-11T06:17:21.967Z,11.17
2022-10-11T06:19:18.799Z,11.14
2022-10-11T06:20:18.765Z,11.15
2022-10-11T06:22:22.814Z,11.14
2022-10-11T06:23:22.736Z,11.10
2022-10-11T06:25:15.664Z,11.12
2022-10-11T06:26:15.643Z,11.14
2022-10-11T06:28:19.750Z,11.12
2022-10-11T06:29:19.623Z,11.18
2022-10-11T06:30:19.625Z,11.15
2022-10-11T06:31:19.620Z,11.22
2022-10-11T06:32:19.611Z,11.23
2022-10-11T06:33:19.624Z,11.25
2022-10-11T06:34:19.606Z,11.25
2022-10-11T06:35:19.601Z,11.19
2022-10-11T06:36:19.607Z,11.25
2022-10-11T06:37:19.607Z,11.22
2022-10-11T06:38:19.620Z,11.27
2022-10-11T06:39:19.586Z,11.30
2022-10-11T06:40:19.582Z,11.25
2022-10-11T06:41:19.578Z,11.29
2022-10-11T06:42:19.651Z,11.26
2022-10-11T06:43:19.569Z,11.22
2022-10-11T06:44:19.576Z,11.33
2022-10-11T06:45:19.554Z,11.33
2022-10-11T06:46:19.570Z,11.33
2022-10-11T06:47:19.581Z,11.40
2022-10-11T06:48:19.556Z,11.35
2022-10-11T06:49:23.233Z,11.43
2022-10-11T06:50:34.831Z,11.50
2022-10-11T06:51:19.595Z,11.51
2022-10-11T06:52:19.541Z,11.52
2022-10-11T06:53:19.552Z,11.60
2022-10-11T06:54:19.541Z,11.55
2022-10-11T06:55:19.525Z,11.54
2022-10-11T06:56:19.521Z,11.55
2022-10-11T06:57:19.544Z,11.62
2022-10-11T06:58:19.531Z,11.65
2022-10-11T06:59:19.522Z,11.60
2022-10-11T07:00:19.536Z,11.51
2022-10-11T07:01:19.548Z,11.63
2022-10-11T07:02:19.495Z,11.68
2022-10-11T07:03:19.503Z,11.68
2022-10-11T07:04:19.487Z,11.70
2022-10-11T07:05:19.480Z,11.59
2022-10-11T07:06:19.500Z,11.68
2022-10-11T07:07:19.518Z,11.70
2022-10-11T07:08:19.512Z,11.66
2022-10-11T07:09:19.466Z,11.66
2022-10-11T07:10:19.468Z,11.69
2022-10-11T07:11:19.471Z,11.60
2022-10-11T07:12:19.466Z,11.73
2022-10-11T07:13:19.468Z,11.72
2022-10-11T07:14:19.446Z,11.77
2022-10-11T07:15:19.455Z,11.73
2022-10-11T07:16:19.452Z,11.80
2022-10-11T07:17:19.449Z,11.83
2022-10-11T07:18:19.583Z,11.84
2022-10-11T07:19:19.432Z,11.87
2022-10-11T07:20:19.484Z,11.87
2022-10-11T07:21:19.459Z,11.91
2022-10-11T07:22:19.459Z,11.91
2022-10-11T07:23:19.428Z,12.06
2022-10-11T07:24:19.454Z,11.99
2022-10-11T07:25:19.415Z,12.12
2022-10-11T07:26:19.622Z,12.07
2022-10-11T07:27:19.419Z,12.18
2022-10-11T07:28:19.484Z,12.32
2022-10-11T07:29:19.392Z,12.46
2022-10-11T07:30:19.407Z,12.61
2022-10-11T07:31:19.413Z,12.78
2022-10-11T07:32:19.391Z,13.03
2022-10-11T07:33:19.386Z,13.38
2022-10-11T07:34:19.379Z,13.56
2022-10-11T07:35:19.384Z,13.81
2022-10-11T07:36:19.376Z,14.10
2022-10-11T07:37:19.399Z,14.36
2022-10-11T07:38:19.411Z,14.77
2022-10-11T07:39:19.386Z,15.06
2022-10-11T07:40:19.417Z,15.33
2022-10-11T07:41:19.402Z,15.67
2022-10-11T07:42:19.383Z,15.95
2022-10-11T07:43:19.436Z,16.31
2022-10-11T07:44:19.388Z,16.65
2022-10-11T07:45:19.404Z,16.87
2022-10-11T07:46:19.399Z,17.24
2022-10-11T07:47:19.450Z,17.48
2022-10-11T07:48:19.411Z,17.71
2022-10-11T07:49:19.425Z,17.92
2022-10-11T07:50:19.419Z,18.15
2022-10-11T07:51:19.456Z,18.43
2022-10-11T07:52:19.448Z,18.56
2022-10-11T07:53:19.473Z,18.66
2022-10-11T07:54:19.484Z,18.86
2022-10-11T07:55:19.469Z,19.07
2022-10-11T07:56:19.475Z,19.18
2022-10-11T07:57:19.480Z,19.31
2022-10-11T07:58:19.496Z,19.40
2022-10-11T07:59:19.501Z,19.66
2022-10-11T08:00:19.512Z,19.70
2022-10-11T08:01:19.566Z,19.70
2022-10-11T08:02:19.550Z,19.89
2022-10-11T08:03:19.554Z,20.02
2022-10-11T08:04:19.574Z,20.09
2022-10-11T08:05:19.571Z,20.19
2022-10-11T08:06:19.579Z,20.28
2022-10-11T08:07:19.598Z,20.34
2022-10-11T08:08:19.641Z,20.40
2022-10-11T08:09:19.706Z,20.47
2022-10-11T08:10:19.633Z,20.55
2022-10-11T08:11:19.824Z,20.56
2022-10-11T08:12:19.653Z,20.44
2022-10-11T08:13:19.662Z,20.43
2022-10-11T08:14:19.676Z,20.48
2022-10-11T08:15:19.702Z,20.52
2022-10-11T08:16:19.735Z,20.67
2022-10-11T08:17:19.708Z,20.72
2022-10-11T08:18:19.805Z,20.87
2022-10-11T08:19:19.755Z,20.85
2022-10-11T08:20:19.733Z,20.88
2022-10-11T08:21:19.760Z,20.82
2022-10-11T08:22:19.788Z,20.69
2022-10-11T08:23:19.796Z,20.55
2022-10-11T08:24:19.794Z,20.47
2022-10-11T08:25:19.827Z,20.40
2022-10-11T08:26:19.820Z,20.18
2022-10-11T08:27:19.855Z,20.03
2022-10-11T08:28:19.920Z,19.91
2022-10-11T08:29:19.895Z,19.76
2022-10-11T08:30:19.866Z,19.62
2022-10-11T08:31:19.889Z,19.45
2022-10-11T08:32:19.917Z,19.36
2022-10-11T08:33:19.928Z,19.12
2022-10-11T08:34:19.982Z,19.02
2022-10-11T08:35:19.954Z,19.04
2022-10-11T08:36:19.936Z,18.90
2022-10-11T08:37:19.969Z,18.71
2022-10-11T08:38:19.976Z,18.60
2022-10-11T08:39:19.996Z,18.55
2022-10-11T08:40:20.038Z,18.50
2022-10-11T08:41:20.020Z,18.43
2022-10-11T08:42:20.013Z,18.37
2022-10-11T08:43:20.024Z,18.26
2022-10-11T08:44:20.058Z,18.33
2022-10-11T08:45:20.105Z,18.18
2022-10-11T08:46:20.098Z,18.18
2022-10-11T08:47:20.082Z,18.15
2022-10-11T08:48:20.081Z,17.97
2022-10-11T08:49:20.089Z,17.89
2022-10-11T08:50:20.096Z,17.70
2022-10-11T08:51:20.147Z,17.78
2022-10-11T08:52:20.110Z,17.56
2022-10-11T08:53:20.129Z,17.42
2022-10-11T08:54:20.124Z,17.45
2022-10-11T08:55:20.117Z,17.33
2022-10-11T08:56:20.137Z,17.38
2022-10-11T08:57:20.147Z,17.26
2022-10-11T08:58:20.168Z,17.19
2022-10-11T08:59:20.268Z,17.16
2022-10-11T09:00:20.228Z,17.16
2022-10-11T09:01:20.204Z,17.06
2022-10-11T09:02:20.160Z,16.97
2022-10-11T09:03:20.202Z,16.91
2022-10-11T09:04:20.189Z,16.84
2022-10-11T09:05:20.158Z,16.79
2022-10-11T09:06:20.166Z,16.71
2022-10-11T09:07:20.171Z,16.75
2022-10-11T09:08:20.171Z,16.79
2022-10-11T09:09:20.198Z,16.74
2022-10-11T09:10:20.237Z,16.64
2022-10-11T09:11:20.183Z,16.66
2022-10-11T09:12:20.189Z,16.58
2022-10-11T09:13:20.214Z,16.57
2022-10-11T09:14:20.281Z,16.53
2022-10-11T09:15:20.205Z,16.56
2022-10-11T09:16:20.207Z,16.50
2022-10-11T09:17:20.208Z,16.46
2022-10-11T09:18:20.203Z,16.39
2022-10-11T09:19:20.200Z,16.35
2022-10-11T09:20:20.292Z,16.38
2022-10-11T09:21:20.233Z,16.43
2022-10-11T09:22:20.238Z,16.43
2022-10-11T09:23:20.205Z,16.50
2022-10-11T09:24:20.238Z,16.50
2022-10-11T09:25:20.204Z,16.53
2022-10-11T09:26:20.209Z,16.50
2022-10-11T09:27:25.887Z,16.41
2022-10-11T09:28:20.277Z,16.47
2022-10-11T09:29:20.202Z,16.36
2022-10-11T09:30:20.206Z,16.36
2022-10-11T09:31:20.210Z,16.39
2022-10-11T09:32:20.219Z,16.36
2022-10-11T09:33:20.216Z,16.41
2022-10-11T09:34:20.290Z,16.47
2022-10-11T09:35:20.215Z,16.49
2022-10-11T09:36:20.218Z,16.51
2022-10-11T09:37:20.215Z,16.57
2022-10-11T09:38:20.240Z,16.53
2022-10-11T09:39:20.249Z,16.56
2022-10-11T09:40:20.214Z,16.60
2022-10-11T09:41:20.230Z,16.58
2022-10-11T09:42:20.208Z,16.56
2022-10-11T09:43:20.206Z,16.61
2022-10-11T09:44:20.217Z,16.65
2022-10-11T09:45:20.224Z,16.68
2022-10-11T09:46:20.218Z,16.68
2022-10-11T09:47:20.214Z,16.69
2022-10-11T09:48:20.266Z,16.68
2022-10-11T09:49:20.208Z,16.64
2022-10-11T09:50:20.230Z,16.74
2022-10-11T09:51:20.215Z,16.72
2022-10-11T09:52:20.206Z,16.74
2022-10-11T09:53:20.212Z,16.74
2022-10-11T09:54:20.226Z,16.69
2022-10-11T09:55:20.222Z,16.74
2022-10-11T09:56:20.205Z,16.69
2022-10-11T09:57:20.215Z,16.68
2022-10-11T09:58:20.199Z,16.72
2022-10-11T09:59:20.213Z,16.66
2022-10-11T10:00:20.215Z,16.64
2022-10-11T10:01:20.225Z,16.64
2022-10-11T10:02:20.210Z,16.66
2022-10-11T10:03:20.218Z,16.53
2022-10-11T10:04:20.233Z,16.51
2022-10-11T10:05:20.222Z,16.49
2022-10-11T10:06:20.221Z,16.50
2022-10-11T10:07:20.207Z,16.49
2022-10-11T10:08:20.283Z,16.47
2022-10-11T10:09:20.214Z,16.38
2022-10-11T10:10:20.203Z,16.41
2022-10-11T10:11:20.199Z,16.32
2022-10-11T10:12:20.202Z,16.33
2022-10-11T10:13:20.198Z,16.29
2022-10-11T10:14:20.205Z,16.31
2022-10-11T10:15:20.239Z,16.08
2022-10-11T10:16:20.206Z,16.10
2022-10-11T10:17:20.204Z,16.08
2022-10-11T10:18:20.202Z,16.05
2022-10-11T10:19:20.205Z,16.00
2022-10-11T10:20:20.209Z,16.01
2022-10-11T10:21:20.198Z,15.92
2022-10-11T10:22:20.195Z,15.90
2022-10-11T10:23:20.206Z,15.76
2022-10-11T10:24:20.195Z,15.83
2022-10-11T10:25:27.456Z,15.77
2022-10-11T10:27:24.276Z,15.59
2022-10-11T10:28:24.321Z,15.61
2022-10-11T10:30:31.851Z,15.49
2022-10-11T10:31:28.250Z,15.51
2022-10-11T10:32:28.294Z,15.43
2022-10-11T10:33:28.228Z,15.47
2022-10-11T10:34:28.265Z,15.51
2022-10-11T10:35:28.244Z,15.42
2022-10-11T10:36:28.226Z,15.36
2022-10-11T10:37:28.228Z,15.36
2022-10-11T10:38:28.236Z,15.35
2022-10-11T10:39:28.240Z,15.25
2022-10-11T10:40:28.220Z,15.29
2022-10-11T10:41:28.222Z,15.33
2022-10-11T10:42:28.219Z,15.35
2022-10-11T10:43:28.267Z,15.31
2022-10-11T10:44:28.239Z,15.31
2022-10-11T10:45:28.217Z,15.22
2022-10-11T10:46:28.217Z,15.24
2022-10-11T10:47:28.229Z,15.21
2022-10-11T10:48:28.225Z,15.22
2022-10-11T10:49:52.357Z,15.14
2022-10-11T10:50:28.231Z,15.22
2022-10-11T10:51:28.223Z,15.19
2022-10-11T10:52:28.221Z,15.29
2022-10-11T10:53:28.240Z,15.22
2022-10-11T10:54:28.213Z,15.24
2022-10-11T10:55:28.213Z,15.27
2022-10-11T10:56:28.206Z,15.29
2022-10-11T10:57:28.204Z,15.21
2022-10-11T10:58:28.205Z,15.33
2022-10-11T10:59:28.203Z,15.33
2022-10-11T11:00:28.205Z,15.22
2022-10-11T11:01:28.347Z,15.24
2022-10-11T11:02:40.447Z,15.31
2022-10-11T11:03:28.262Z,15.27
2022-10-11T11:04:28.195Z,15.31
2022-10-11T11:05:28.204Z,15.24
2022-10-11T11:06:30.544Z,15.19
2022-10-11T11:07:28.215Z,15.19
2022-10-11T11:08:28.201Z,15.14
2022-10-11T11:09:28.234Z,15.11
2022-10-11T11:10:28.256Z,15.02
2022-10-11T11:11:29.145Z,14.92
2022-10-11T11:12:28.191Z,14.96
2022-10-11T11:13:28.185Z,14.94
2022-10-11T11:14:28.206Z,14.91
2022-10-11T11:15:32.661Z,14.86
2022-10-11T11:16:28.185Z,14.88
2022-10-11T11:17:28.196Z,14.89
2022-10-11T11:18:28.198Z,14.88
2022-10-11T11:19:28.188Z,14.94
2022-10-11T11:20:28.173Z,14.91
2022-10-11T11:21:28.184Z,14.96
2022-10-11T11:22:32.575Z,15.00
2022-10-11T11:23:28.189Z,14.94
2022-10-11T11:24:28.181Z,14.91
2022-10-11T11:25:28.169Z,14.88
2022-10-11T11:26:28.167Z,14.81
2022-10-11T11:27:28.198Z,14.86
2022-10-11T11:28:28.222Z,14.84
2022-10-11T11:29:28.175Z,14.82
2022-10-11T11:30:28.162Z,14.88
2022-10-11T11:31:28.181Z,14.81
2022-10-11T11:32:28.166Z,14.78
2022-10-11T11:33:28.169Z,14.81
2022-10-11T11:34:28.160Z,14.82
2022-10-11T11:35:28.165Z,14.79
2022-10-11T11:36:28.200Z,14.78
2022-10-11T11:37:28.169Z,14.82
2022-10-11T11:38:29.757Z,14.85
2022-10-11T11:39:28.164Z,14.91
2022-10-11T11:40:28.146Z,14.96
2022-10-11T11:41:28.147Z,15.03
2022-10-11T11:42:28.148Z,15.00
2022-10-11T11:43:28.178Z,14.99
2022-10-11T11:44:28.146Z,15.00
2022-10-11T11:45:28.154Z,15.04
2022-10-11T11:46:28.152Z,15.09
2022-10-11T11:47:28.167Z,15.09
2022-10-11T11:48:28.138Z,15.11
2022-10-11T11:49:28.141Z,15.09
2022-10-11T11:50:29.602Z,15.09
2022-10-11T11:51:30.648Z,15.14
2022-10-11T11:52:28.129Z,15.07
2022-10-11T11:53:28.135Z,15.00
2022-10-11T11:54:28.124Z,15.03
2022-10-11T11:55:28.129Z,15.06
2022-10-11T11:56:28.127Z,15.14
2022-10-11T11:57:28.126Z,15.11
2022-10-11T11:58:28.118Z,15.14
2022-10-11T11:59:28.139Z,15.18
2022-10-11T12:00:28.126Z,15.22
2022-10-11T12:01:31.300Z,15.29
2022-10-11T12:02:28.188Z,15.24
2022-10-11T12:03:28.131Z,15.27
2022-10-11T12:04:28.112Z,15.29
2022-10-11T12:05:28.135Z,15.29
2022-10-11T12:06:28.118Z,15.29
2022-10-11T12:07:28.128Z,15.28
2022-10-11T12:08:28.131Z,15.37
2022-10-11T12:09:28.127Z,15.39
2022-10-11T12:10:28.125Z,15.31
2022-10-11T12:11:33.055Z,15.36
2022-10-11T12:12:28.157Z,15.36
2022-10-11T12:13:32.154Z,15.33
2022-10-11T12:14:28.094Z,15.29
2022-10-11T12:15:28.095Z,15.25
2022-10-11T12:16:28.089Z,15.31
2022-10-11T12:17:28.094Z,15.21
2022-10-11T12:18:28.095Z,15.21
2022-10-11T12:19:28.098Z,15.19
2022-10-11T12:20:28.101Z,15.24
2022-10-11T12:21:28.107Z,15.15
2022-10-11T12:22:28.093Z,15.24
2022-10-11T12:23:28.095Z,15.17
2022-10-11T12:24:28.086Z,15.17
2022-10-11T12:25:28.108Z,15.17
2022-10-11T12:26:28.094Z,15.22
2022-10-11T12:27:28.097Z,15.17
2022-10-11T12:28:28.128Z,15.07
2022-10-11T12:29:29.264Z,15.09
2022-10-11T12:30:28.077Z,15.19
2022-10-11T12:31:28.077Z,15.09
2022-10-11T12:32:28.080Z,15.21
2022-10-11T12:33:28.110Z,15.14
2022-10-11T12:34:28.134Z,15.11
2022-10-11T12:35:28.077Z,15.14
2022-10-11T12:36:28.088Z,15.07
2022-10-11T12:37:28.077Z,15.09
2022-10-11T12:38:28.085Z,15.09
2022-10-11T12:39:28.080Z,15.14
2022-10-11T12:40:28.071Z,15.06
2022-10-11T12:41:28.067Z,15.06
2022-10-11T12:42:28.073Z,15.09
2022-10-11T12:43:28.066Z,15.04
2022-10-11T12:44:28.078Z,14.97
2022-10-11T12:45:28.056Z,14.97
2022-10-11T12:46:28.066Z,14.99
2022-10-11T12:47:28.075Z,14.97
2022-10-11T12:48:33.940Z,14.94
2022-10-11T12:49:28.053Z,14.91
2022-10-11T12:50:28.053Z,14.89
2022-10-11T12:51:28.058Z,14.96
2022-10-11T12:52:28.045Z,14.92
2022-10-11T12:53:28.044Z,14.89
2022-10-11T12:54:30.958Z,15.02
2022-10-11T12:55:28.048Z,14.91
2022-10-11T12:56:28.060Z,14.94
2022-10-11T12:57:28.036Z,14.94
2022-10-11T12:58:28.038Z,14.97